createdAt,value
2019-05-22T00:00:16.024Z,0
2019-05-22T00:01:15.130Z,0
2019-05-22T00:02:15.462Z,0
2019-05-22T00:03:15.142Z,0
2019-05-22T00:04:15.086Z,0
2019-05-22T00:05:15.116Z,0
2019-05-22T00:06:15.099Z,0
2019-05-22T00:07:15.132Z,0
2019-05-22T00:08:15.399Z,0
2019-05-22T00:09:15.104Z,0
2019-05-22T00:10:15.274Z,0
2019-05-22T00:11:15.116Z,0
2019-05-22T00:12:15.141Z,0
2019-05-22T00:13:15.169Z,0
2019-05-22T00:14:15.442Z,0
2019-05-22T00:15:15.265Z,0
2019-05-22T00:16:15.213Z,0
2019-05-22T00:17:15.093Z,0
2019-05-22T00:18:15.225Z,0
2019-05-22T00:19:15.107Z,0
2019-05-22T00:20:15.626Z,0
2019-05-22T00:21:15.144Z,0
2019-05-22T00:22:15.134Z,0
2019-05-22T00:23:15.894Z,0
2019-05-22T00:24:15.120Z,0
2019-05-22T00:25:18.003Z,0
2019-05-22T00:26:15.555Z,0
2019-05-22T00:27:15.449Z,0
2019-05-22T00:28:15.271Z,0
2019-05-22T00:29:15.308Z,0
2019-05-22T00:30:16.189Z,0
2019-05-22T00:31:15.237Z,0
2019-05-22T00:32:15.382Z,0
2019-05-22T00:33:15.182Z,0
2019-05-22T00:34:15.153Z,0
2019-05-22T00:35:15.216Z,0
2019-05-22T00:36:15.231Z,0
2019-05-22T00:37:15.291Z,0
2019-05-22T00:38:15.891Z,0
2019-05-22T00:39:15.262Z,0
2019-05-22T00:40:16.378Z,0
2019-05-22T00:41:15.275Z,0
2019-05-22T00:42:15.166Z,0
2019-05-22T00:43:23.749Z,0
2019-05-22T00:44:15.583Z,0
2019-05-22T00:45:15.263Z,0
2019-05-22T00:46:15.277Z,0
2019-05-22T00:47:15.220Z,0
2019-05-22T00:48:15.376Z,0
2019-05-22T00:49:15.233Z,0
2019-05-22T00:50:15.770Z,0
2019-05-22T00:51:15.246Z,0
2019-05-22T00:52:15.249Z,0
2019-05-22T00:53:15.241Z,0
2019-05-22T00:54:15.289Z,0
2019-05-22T00:55:15.297Z,0
2019-05-22T00:56:15.588Z,0
2019-05-22T00:57:15.245Z,0
2019-05-22T00:58:15.254Z,0
2019-05-22T00:59:15.258Z,0
2019-05-22T01:00:15.423Z,0
2019-05-22T01:01:15.296Z,0
2019-05-22T01:02:15.381Z,0
2019-05-22T01:03:15.375Z,0
2019-05-22T01:04:15.308Z,0
2019-05-22T01:05:15.321Z,0
2019-05-22T01:06:15.241Z,0
2019-05-22T01:07:15.295Z,0
2019-05-22T01:08:16.670Z,0
2019-05-22T01:09:15.265Z,0
2019-05-22T01:10:15.962Z,0
2019-05-22T01:11:15.252Z,0
2019-05-22T01:12:15.985Z,0
2019-05-22T01:13:15.252Z,0
2019-05-22T01:14:15.581Z,0
2019-05-22T01:15:15.554Z,0
2019-05-22T01:16:15.306Z,0
2019-05-22T01:17:15.300Z,0
2019-05-22T01:18:15.307Z,0
2019-05-22T01:19:15.356Z,0
2019-05-22T01:20:16.299Z,0
2019-05-22T01:21:15.285Z,0
2019-05-22T01:22:15.346Z,0
2019-05-22T01:23:15.360Z,0
2019-05-22T01:24:15.365Z,0
2019-05-22T01:25:15.343Z,0
2019-05-22T01:26:15.680Z,0
2019-05-22T01:27:15.381Z,0
2019-05-22T01:28:15.309Z,0
2019-05-22T01:29:15.283Z,0
2019-05-22T01:30:16.320Z,0
2019-05-22T01:31:15.283Z,0
2019-05-22T01:32:15.599Z,0
2019-05-22T01:33:15.280Z,0
2019-05-22T01:34:15.332Z,0
2019-05-22T01:35:15.360Z,0
2019-05-22T01:36:15.323Z,0
2019-05-22T01:37:15.353Z,0
2019-05-22T01:38:15.616Z,0
2019-05-22T01:39:15.411Z,0
2019-05-22T01:40:15.467Z,0
2019-05-22T01:41:15.317Z,0
2019-05-22T01:42:15.325Z,0
2019-05-22T01:43:15.326Z,0
2019-05-22T01:44:15.769Z,0
2019-05-22T01:45:17.281Z,0
2019-05-22T01:46:19.874Z,0
2019-05-22T01:47:15.626Z,0
2019-05-22T01:48:15.423Z,0
2019-05-22T01:49:15.371Z,0
2019-05-22T01:50:15.702Z,0
2019-05-22T01:51:15.593Z,0
2019-05-22T01:52:15.330Z,0
2019-05-22T01:53:15.627Z,0
2019-05-22T01:54:15.300Z,0
2019-05-22T01:55:15.466Z,0
2019-05-22T01:56:16.699Z,0
2019-05-22T01:57:15.323Z,0
2019-05-22T01:58:15.349Z,0
2019-05-22T01:59:15.951Z,0
2019-05-22T02:00:15.442Z,0
2019-05-22T02:01:16.474Z,0
2019-05-22T02:02:15.781Z,0
2019-05-22T02:03:15.401Z,0
2019-05-22T02:04:17.680Z,0
2019-05-22T02:05:15.745Z,0
2019-05-22T02:06:15.361Z,0
2019-05-22T02:07:15.408Z,0
2019-05-22T02:08:15.801Z,0
2019-05-22T02:09:16.871Z,0
2019-05-22T02:10:16.372Z,0
2019-05-22T02:11:15.656Z,0
2019-05-22T02:12:15.423Z,0
2019-05-22T02:13:15.481Z,0
2019-05-22T02:14:16.788Z,0
2019-05-22T02:15:15.497Z,0
2019-05-22T02:16:16.954Z,0
2019-05-22T02:17:15.403Z,0
2019-05-22T02:18:15.367Z,0
2019-05-22T02:19:15.394Z,0
2019-05-22T02:20:17.088Z,0
2019-05-22T02:21:15.388Z,0
2019-05-22T02:22:15.520Z,0
2019-05-22T02:23:15.368Z,0
2019-05-22T02:24:15.428Z,0
2019-05-22T02:25:15.432Z,0
2019-05-22T02:26:15.830Z,0
2019-05-22T02:27:15.447Z,0
2019-05-22T02:28:15.394Z,0
2019-05-22T02:29:15.386Z,0
2019-05-22T02:30:15.570Z,0
2019-05-22T02:31:15.415Z,0
2019-05-22T02:32:15.676Z,0
2019-05-22T02:33:15.488Z,0
2019-05-22T02:34:15.460Z,0
2019-05-22T02:35:15.590Z,0
2019-05-22T02:36:15.528Z,0
2019-05-22T02:37:15.637Z,0
2019-05-22T02:38:15.889Z,0
2019-05-22T02:39:15.430Z,0
2019-05-22T02:40:15.596Z,0
2019-05-22T02:41:19.558Z,0
2019-05-22T02:42:15.448Z,0
2019-05-22T02:43:15.451Z,0
2019-05-22T02:44:15.747Z,0
2019-05-22T02:45:15.506Z,0
2019-05-22T02:46:24.134Z,0
2019-05-22T02:47:29.692Z,0
2019-05-22T02:48:15.424Z,0
2019-05-22T02:49:15.467Z,0
2019-05-22T02:50:15.859Z,0
2019-05-22T02:51:15.497Z,0
2019-05-22T02:52:15.498Z,0
2019-05-22T02:53:15.477Z,0
2019-05-22T02:54:15.445Z,0
2019-05-22T02:55:15.522Z,0
2019-05-22T02:56:16.907Z,0
2019-05-22T02:57:15.517Z,0
2019-05-22T02:58:15.407Z,0
2019-05-22T02:59:15.471Z,0
2019-05-22T03:00:15.604Z,0
2019-05-22T03:01:15.524Z,0
2019-05-22T03:02:15.904Z,0
2019-05-22T03:03:15.441Z,0
2019-05-22T03:04:15.449Z,0
2019-05-22T03:05:18.325Z,0
2019-05-22T03:06:15.658Z,0
2019-05-22T03:07:15.460Z,0
2019-05-22T03:08:15.778Z,0
2019-05-22T03:09:15.597Z,0
2019-05-22T03:10:16.231Z,0
2019-05-22T03:11:15.487Z,0
2019-05-22T03:12:15.628Z,0
2019-05-22T03:13:15.504Z,0
2019-05-22T03:14:15.773Z,0
2019-05-22T03:15:15.556Z,0
2019-05-22T03:16:23.438Z,0
2019-05-22T03:17:15.508Z,0
2019-05-22T03:18:15.460Z,0
2019-05-22T03:19:19.582Z,0
2019-05-22T03:20:16.689Z,0
2019-05-22T03:21:15.484Z,0
2019-05-22T03:22:15.602Z,0
2019-05-22T03:23:15.468Z,0
2019-05-22T03:24:15.472Z,0
2019-05-22T03:25:15.563Z,0
2019-05-22T03:26:16.366Z,0
2019-05-22T03:27:15.474Z,0
2019-05-22T03:28:15.682Z,0
2019-05-22T03:29:15.540Z,0
2019-05-22T03:30:16.497Z,0
2019-05-22T03:31:16.057Z,0
2019-05-22T03:32:15.595Z,0
2019-05-22T03:33:15.729Z,0
2019-05-22T03:34:15.663Z,0
2019-05-22T03:35:15.634Z,0
2019-05-22T03:36:15.823Z,0
2019-05-22T03:37:15.544Z,0
2019-05-22T03:38:15.850Z,0
2019-05-22T03:39:15.500Z,0
2019-05-22T03:40:15.623Z,0
2019-05-22T03:41:15.771Z,0
2019-05-22T03:42:15.948Z,0
2019-05-22T03:43:15.676Z,0
2019-05-22T03:44:15.837Z,0
2019-05-22T03:45:15.580Z,0
2019-05-22T03:46:24.983Z,0
2019-05-22T03:47:15.903Z,0
2019-05-22T03:48:15.603Z,0
2019-05-22T03:49:34.179Z,0
2019-05-22T03:50:16.041Z,0
2019-05-22T03:51:15.598Z,0
2019-05-22T03:52:15.480Z,0
2019-05-22T03:53:15.563Z,0
2019-05-22T03:54:15.596Z,0
2019-05-22T03:55:15.789Z,0
2019-05-22T03:56:16.019Z,0
2019-05-22T03:57:15.570Z,0
2019-05-22T03:58:15.621Z,0
2019-05-22T03:59:16.590Z,0
2019-05-22T04:00:15.649Z,0
2019-05-22T04:01:15.542Z,0
2019-05-22T04:02:15.897Z,0
2019-05-22T04:03:15.693Z,0
2019-05-22T04:04:15.579Z,0
2019-05-22T04:05:15.603Z,0
2019-05-22T04:06:15.586Z,0
2019-05-22T04:07:15.637Z,0
2019-05-22T04:08:15.871Z,0
2019-05-22T04:09:15.610Z,0
2019-05-22T04:10:15.595Z,0
2019-05-22T04:16:22.166Z,0
2019-05-22T04:16:33.346Z,0
2019-05-22T04:17:33.371Z,0
2019-05-22T04:18:33.665Z,0
2019-05-22T04:19:54.518Z,0
2019-05-22T04:20:33.226Z,0
2019-05-22T04:21:33.588Z,0
2019-05-22T04:22:33.203Z,0
2019-05-22T04:23:33.271Z,0
2019-05-22T04:26:40.596Z,0
2019-05-22T04:27:51.682Z,0
2019-05-22T04:28:51.675Z,0
2019-05-22T04:29:51.616Z,0
2019-05-22T04:30:51.606Z,0
2019-05-22T04:31:52.435Z,0
2019-05-22T04:32:51.597Z,0
2019-05-22T04:33:51.649Z,0
2019-05-22T04:34:51.597Z,0
2019-05-22T04:35:51.712Z,0
2019-05-22T04:36:51.772Z,0
2019-05-22T04:37:52.042Z,0
2019-05-22T04:38:51.773Z,0
2019-05-22T04:39:51.712Z,0
2019-05-22T04:40:51.615Z,0
2019-05-22T04:41:51.641Z,0
2019-05-22T04:42:51.664Z,0
2019-05-22T04:43:51.950Z,0
2019-05-22T04:44:51.590Z,0
2019-05-22T04:45:51.596Z,0
2019-05-22T04:46:51.706Z,0
2019-05-22T04:47:51.656Z,0
2019-05-22T04:48:56.281Z,0
2019-05-22T04:50:09.356Z,0
2019-05-22T04:50:51.728Z,0
2019-05-22T04:51:51.608Z,0
2019-05-22T04:52:51.689Z,0
2019-05-22T04:53:51.666Z,0
2019-05-22T04:54:55.178Z,0
2019-05-22T04:55:51.641Z,0
2019-05-22T04:56:51.669Z,0
2019-05-22T04:57:51.651Z,0
2019-05-22T04:58:51.639Z,0
2019-05-22T04:59:51.645Z,0
2019-05-22T05:00:51.696Z,0
2019-05-22T05:01:52.090Z,0
2019-05-22T05:02:51.695Z,0
2019-05-22T05:03:51.660Z,0
2019-05-22T05:04:51.680Z,0
2019-05-22T05:05:51.744Z,0
2019-05-22T05:06:51.695Z,0
2019-05-22T05:07:51.600Z,0
2019-05-22T05:08:51.732Z,0
2019-05-22T05:09:51.753Z,0
2019-05-22T05:10:51.655Z,0
2019-05-22T05:11:51.726Z,0
2019-05-22T05:12:51.754Z,0
2019-05-22T05:13:52.111Z,0
2019-05-22T05:14:51.728Z,0
2019-05-22T05:15:51.755Z,0
2019-05-22T05:16:51.677Z,0
2019-05-22T05:17:51.639Z,0
2019-05-22T05:18:51.667Z,0
2019-05-22T05:19:51.915Z,0
2019-05-22T05:20:51.723Z,0
2019-05-22T05:21:51.706Z,0
2019-05-22T05:22:51.756Z,0
2019-05-22T05:23:51.740Z,0
2019-05-22T05:24:51.625Z,0
2019-05-22T05:25:52.053Z,0
2019-05-22T05:26:51.844Z,0
2019-05-22T05:32:08.792Z,5
2019-05-22T05:33:19.753Z,5
2019-05-22T05:34:19.900Z,5
2019-05-22T05:35:19.826Z,5
2019-05-22T05:36:19.814Z,5
2019-05-22T05:37:20.232Z,5
2019-05-22T05:38:19.806Z,5
2019-05-22T05:39:19.858Z,5
2019-05-22T05:40:19.951Z,5
2019-05-22T05:41:19.841Z,5
2019-05-22T05:42:19.835Z,5
2019-05-22T05:43:20.125Z,5
2019-05-22T05:44:19.746Z,5
2019-05-22T05:45:23.743Z,0
2019-05-22T05:46:19.813Z,5
2019-05-22T05:47:19.826Z,5
2019-05-22T05:48:19.828Z,5
2019-05-22T05:49:20.064Z,5
2019-05-22T05:50:19.823Z,5
2019-05-22T05:51:19.951Z,5
2019-05-22T05:52:19.835Z,5
2019-05-22T05:53:19.825Z,5
2019-05-22T05:54:19.790Z,5
2019-05-22T05:55:20.148Z,5
2019-05-22T05:56:19.848Z,5
2019-05-22T05:57:19.894Z,5
2019-05-22T05:58:19.796Z,5
2019-05-22T05:59:19.919Z,5
2019-05-22T06:00:20.239Z,5
2019-05-22T06:01:20.860Z,5
2019-05-22T06:02:19.847Z,5
2019-05-22T06:03:19.865Z,5
2019-05-22T06:04:33.545Z,5
2019-05-22T06:05:19.866Z,5
2019-05-22T06:06:19.865Z,5
2019-05-22T06:07:20.305Z,5
2019-05-22T06:08:20.027Z,5
2019-05-22T06:09:19.872Z,5
2019-05-22T06:11:24.592Z,5
2019-05-22T06:12:35.909Z,5
2019-05-22T06:13:35.602Z,5
2019-05-22T06:14:35.687Z,5
2019-05-22T06:16:10.448Z,5
2019-05-22T06:16:44.208Z,5
2019-05-22T06:17:35.746Z,5
2019-05-22T06:18:35.886Z,10
2019-05-22T06:19:35.700Z,10
2019-05-22T06:20:35.585Z,10
2019-05-22T06:21:35.592Z,10
2019-05-22T06:22:35.724Z,5
2019-05-22T06:23:35.626Z,5
2019-05-22T06:24:36.046Z,5
2019-05-22T06:25:35.619Z,5
2019-05-22T06:26:35.625Z,5
2019-05-22T06:27:35.740Z,5
2019-05-22T06:28:35.661Z,5
2019-05-22T06:29:38.333Z,5
2019-05-22T06:30:37.374Z,5
2019-05-22T06:31:35.680Z,5
2019-05-22T06:32:35.648Z,5
2019-05-22T06:33:35.588Z,5
2019-05-22T06:34:35.659Z,5
2019-05-22T06:35:35.671Z,5
2019-05-22T06:36:35.964Z,5
2019-05-22T06:37:35.633Z,5
2019-05-22T06:38:36.626Z,5
2019-05-22T06:39:35.646Z,5
2019-05-22T06:40:35.762Z,5
2019-05-22T06:41:35.644Z,5
2019-05-22T06:42:36.080Z,5
2019-05-22T06:43:35.660Z,5
2019-05-22T06:44:35.705Z,5
2019-05-22T06:45:38.295Z,5
2019-05-22T06:46:44.742Z,5
2019-05-22T06:47:35.668Z,5
2019-05-22T06:48:36.678Z,5
2019-05-22T06:49:35.707Z,5
2019-05-22T06:50:35.734Z,5
2019-05-22T06:51:35.659Z,5
2019-05-22T06:52:35.690Z,5
2019-05-22T06:53:35.626Z,5
2019-05-22T06:54:36.382Z,5
2019-05-22T06:55:35.687Z,5
2019-05-22T06:56:35.616Z,5
2019-05-22T06:57:35.666Z,10
2019-05-22T06:58:35.667Z,10
2019-05-22T06:59:36.002Z,5
2019-05-22T07:00:35.723Z,5
2019-05-22T07:01:35.767Z,5
2019-05-22T07:02:35.695Z,10
2019-05-22T07:03:35.842Z,10
2019-05-22T07:04:35.757Z,10
2019-05-22T07:05:36.012Z,10
2019-05-22T07:06:35.820Z,15
2019-05-22T07:07:35.744Z,15
2019-05-22T07:08:35.711Z,15
2019-05-22T07:09:35.677Z,15
2019-05-22T07:10:35.788Z,15
2019-05-22T07:11:36.104Z,15
2019-05-22T07:12:35.711Z,15
2019-05-22T07:13:35.702Z,20
2019-05-22T07:14:35.735Z,20
2019-05-22T07:15:36.244Z,20
2019-05-22T07:16:45.674Z,20
2019-05-22T07:17:36.018Z,20
2019-05-22T07:18:35.758Z,20
2019-05-22T07:19:35.718Z,20
2019-05-22T07:20:35.972Z,15
2019-05-22T07:21:44.300Z,15
2019-05-22T07:22:35.738Z,20
2019-05-22T07:23:36.234Z,20
2019-05-22T07:24:35.838Z,15
2019-05-22T07:25:35.742Z,15
2019-05-22T07:26:35.706Z,15
2019-05-22T07:27:35.689Z,15
2019-05-22T07:28:36.190Z,15
2019-05-22T07:29:35.707Z,15
2019-05-22T07:30:35.689Z,15
2019-05-22T07:31:35.719Z,15
2019-05-22T07:32:38.772Z,15
2019-05-22T07:33:35.711Z,15
2019-05-22T07:34:35.764Z,15
2019-05-22T07:36:21.151Z,15
2019-05-22T07:36:35.691Z,15
2019-05-22T07:37:35.699Z,15
2019-05-22T07:38:35.906Z,20
2019-05-22T07:39:35.746Z,20
2019-05-22T07:40:35.825Z,15
2019-05-22T07:41:36.055Z,15
2019-05-22T07:42:35.774Z,15
2019-05-22T07:43:40.388Z,20
2019-05-22T07:44:35.756Z,20
2019-05-22T07:45:36.101Z,20
2019-05-22T07:46:50.133Z,20
2019-05-22T07:47:36.481Z,20
2019-05-22T07:48:35.692Z,20
2019-05-22T07:49:35.719Z,20
2019-05-22T07:50:36.764Z,15
2019-05-22T07:51:50.376Z,15
2019-05-22T07:52:35.734Z,15
2019-05-22T07:53:36.113Z,15
2019-05-22T07:54:35.872Z,15
2019-05-22T07:55:35.817Z,15
2019-05-22T07:56:35.742Z,15
2019-05-22T07:57:35.891Z,15
2019-05-22T07:58:35.757Z,15
2019-05-22T07:59:35.780Z,15
2019-05-22T08:00:35.877Z,10
2019-05-22T08:01:35.791Z,15
2019-05-22T08:02:35.906Z,15
2019-05-22T08:03:35.827Z,15
2019-05-22T08:04:35.771Z,15
2019-05-22T08:05:36.251Z,15
2019-05-22T08:06:35.727Z,15
2019-05-22T08:11:52.980Z,20
2019-05-22T08:13:04.047Z,20
2019-05-22T08:14:04.299Z,20
2019-05-22T08:15:04.062Z,15
2019-05-22T08:16:04.872Z,15
2019-05-22T08:17:04.460Z,20
2019-05-22T08:18:04.207Z,20
2019-05-22T08:19:04.015Z,20
2019-05-22T08:22:13.194Z,20
2019-05-22T08:28:50.388Z,15
2019-05-22T08:29:01.587Z,15
2019-05-22T08:30:04.872Z,15
2019-05-22T08:31:01.398Z,10
2019-05-22T08:32:02.822Z,10
2019-05-22T08:33:02.230Z,10
2019-05-22T08:34:01.545Z,10
2019-05-22T08:35:01.648Z,10
2019-05-22T08:36:01.841Z,10
2019-05-22T08:37:01.460Z,10
2019-05-22T08:38:01.773Z,10
2019-05-22T08:39:01.919Z,10
2019-05-22T08:40:02.758Z,10
2019-05-22T08:41:01.414Z,10
2019-05-22T08:42:01.609Z,10
2019-05-22T08:43:01.555Z,10
2019-05-22T08:44:25.729Z,10
2019-05-22T08:45:01.633Z,10
2019-05-22T08:46:01.605Z,10
2019-05-22T08:47:05.570Z,10
2019-05-22T08:48:01.562Z,10
2019-05-22T08:49:01.436Z,10
2019-05-22T08:50:01.869Z,10
2019-05-22T08:51:01.710Z,10
2019-05-22T08:52:01.661Z,5
2019-05-22T08:53:01.604Z,5
2019-05-22T08:54:05.265Z,5
2019-05-22T08:55:01.445Z,10
2019-05-22T08:56:01.426Z,5
2019-05-22T08:57:01.520Z,5
2019-05-22T08:58:01.566Z,10
2019-05-22T08:59:18.297Z,10
2019-05-22T09:00:01.436Z,10
2019-05-22T09:01:01.490Z,10
2019-05-22T09:06:19.855Z,10
2019-05-22T09:06:30.870Z,10
2019-05-22T09:07:31.261Z,10
2019-05-22T09:08:30.885Z,10
2019-05-22T09:09:31.033Z,10
2019-05-22T09:10:33.949Z,10
2019-05-22T09:11:31.001Z,10
2019-05-22T09:12:30.971Z,10
2019-05-22T09:13:31.305Z,10
2019-05-22T09:14:30.947Z,10
2019-05-22T09:15:30.888Z,10
2019-05-22T09:16:30.937Z,10
2019-05-22T09:17:32.051Z,10
2019-05-22T09:18:31.037Z,10
2019-05-22T09:21:40.499Z,10
2019-05-22T09:22:52.151Z,10
2019-05-22T09:23:51.687Z,10
2019-05-22T09:24:51.794Z,10
2019-05-22T09:26:56.681Z,10
2019-05-22T09:28:07.809Z,10
2019-05-22T09:29:07.763Z,10
2019-05-22T09:30:07.827Z,10
2019-05-22T09:31:08.402Z,10
2019-05-22T09:32:08.458Z,10
2019-05-22T09:33:07.794Z,10
2019-05-22T09:34:07.926Z,10
2019-05-22T09:35:07.817Z,10
2019-05-22T09:36:07.902Z,10
2019-05-22T09:37:07.726Z,10
2019-05-22T09:38:08.140Z,10
2019-05-22T09:39:07.804Z,10
2019-05-22T09:40:08.303Z,10
2019-05-22T09:41:07.838Z,10
2019-05-22T09:42:09.271Z,10
2019-05-22T09:43:07.886Z,10
2019-05-22T09:44:08.121Z,10
2019-05-22T09:45:07.817Z,10
2019-05-22T09:46:07.768Z,10
2019-05-22T09:47:11.553Z,10
2019-05-22T09:48:07.756Z,15
2019-05-22T09:49:07.723Z,15
2019-05-22T09:50:08.307Z,15
2019-05-22T09:51:07.753Z,15
2019-05-22T09:52:07.884Z,15
2019-05-22T09:53:08.703Z,15
2019-05-22T09:54:07.733Z,15
2019-05-22T09:55:07.956Z,15
2019-05-22T09:56:08.169Z,15
2019-05-22T09:57:07.688Z,15
2019-05-22T09:58:08.021Z,15
2019-05-22T09:59:07.821Z,15
2019-05-22T10:00:07.835Z,15
2019-05-22T10:01:11.423Z,15
2019-05-22T10:02:07.830Z,15
2019-05-22T10:03:07.834Z,15
2019-05-22T10:04:07.813Z,15
2019-05-22T10:05:07.797Z,20
2019-05-22T10:06:08.543Z,20
2019-05-22T10:07:07.797Z,25
2019-05-22T10:08:12.109Z,30
2019-05-22T10:09:07.704Z,35
2019-05-22T10:10:07.791Z,35
2019-05-22T10:11:07.828Z,35
2019-05-22T10:12:07.877Z,25
2019-05-22T10:13:07.962Z,20
2019-05-22T10:14:08.151Z,20
2019-05-22T10:15:09.686Z,20
2019-05-22T10:16:07.853Z,20
2019-05-22T10:17:09.328Z,20
2019-05-22T10:18:11.727Z,20
2019-05-22T10:19:07.836Z,20
2019-05-22T10:20:08.122Z,20
2019-05-22T10:21:07.938Z,20
2019-05-22T10:22:09.790Z,20
2019-05-22T10:23:24.402Z,20
2019-05-22T10:24:07.791Z,20
2019-05-22T10:25:25.388Z,15
2019-05-22T10:26:08.120Z,20
2019-05-22T10:27:07.870Z,20
2019-05-22T10:28:09.913Z,20
2019-05-22T10:29:07.811Z,25
2019-05-22T10:30:07.862Z,30
2019-05-22T10:31:13.603Z,30
2019-05-22T10:32:08.628Z,30
2019-05-22T10:33:10.678Z,30
2019-05-22T10:34:07.802Z,30
2019-05-22T10:35:08.297Z,30
2019-05-22T10:36:09.391Z,30
2019-05-22T10:37:08.042Z,25
2019-05-22T10:38:08.190Z,25
2019-05-22T10:39:08.449Z,25
2019-05-22T10:40:07.881Z,25
2019-05-22T10:41:09.954Z,25
2019-05-22T10:42:07.846Z,30
2019-05-22T10:43:08.004Z,30
2019-05-22T10:44:08.162Z,25
2019-05-22T10:47:23.788Z,20
2019-05-22T10:48:10.403Z,20
2019-05-22T10:49:10.379Z,20
2019-05-22T10:50:10.898Z,20
2019-05-22T10:51:10.525Z,15
2019-05-22T10:52:10.506Z,15
2019-05-22T10:53:10.353Z,15
2019-05-22T10:54:10.434Z,15
2019-05-22T10:55:10.462Z,15
2019-05-22T10:56:10.781Z,15
2019-05-22T10:57:10.331Z,15
2019-05-22T10:58:10.422Z,10
2019-05-22T10:59:12.127Z,10
2019-05-22T11:00:10.398Z,10
2019-05-22T11:01:10.571Z,10
2019-05-22T11:02:10.812Z,10
2019-05-22T11:03:10.502Z,10
2019-05-22T11:04:10.546Z,10
2019-05-22T11:05:10.526Z,10
2019-05-22T11:06:17.868Z,10
2019-05-22T11:07:10.340Z,15
2019-05-22T11:08:10.772Z,15
2019-05-22T11:09:10.415Z,20
2019-05-22T11:10:11.041Z,30
2019-05-22T11:11:10.470Z,30
2019-05-22T11:12:10.418Z,35
2019-05-22T11:13:10.671Z,35
2019-05-22T11:14:15.285Z,45
2019-05-22T11:15:10.450Z,50
2019-05-22T11:16:10.858Z,50
2019-05-22T11:17:21.102Z,45
2019-05-22T11:18:10.353Z,40
2019-05-22T11:19:10.504Z,40
2019-05-22T11:20:10.941Z,40
2019-05-22T11:21:10.518Z,40
2019-05-22T11:22:10.381Z,40
2019-05-22T11:23:10.488Z,40
2019-05-22T11:24:10.802Z,35
2019-05-22T11:25:10.566Z,35
2019-05-22T11:26:11.515Z,35
2019-05-22T11:27:10.434Z,40
2019-05-22T11:28:10.542Z,40
2019-05-22T11:29:10.465Z,50
2019-05-22T11:30:36.872Z,45
2019-05-22T11:31:25.244Z,40
2019-05-22T11:32:10.732Z,45
2019-05-22T11:33:10.397Z,60
2019-05-22T11:34:10.461Z,70
2019-05-22T11:35:11.136Z,70
2019-05-22T11:36:10.452Z,75
2019-05-22T11:37:10.446Z,70
2019-05-22T11:38:10.763Z,80
2019-05-22T11:39:10.657Z,65
2019-05-22T11:40:10.563Z,55
2019-05-22T11:41:10.569Z,65
2019-05-22T11:42:10.630Z,70
2019-05-22T11:43:10.616Z,70
2019-05-22T11:44:10.942Z,60
2019-05-22T11:45:10.577Z,50
2019-05-22T11:46:10.533Z,35
2019-05-22T11:47:21.530Z,35
2019-05-22T11:48:10.732Z,35
2019-05-22T11:49:10.450Z,35
2019-05-22T11:50:10.781Z,35
2019-05-22T11:51:11.508Z,35
2019-05-22T11:52:10.454Z,35
2019-05-22T11:53:10.642Z,30
2019-05-22T11:54:19.946Z,25
2019-05-22T11:55:10.592Z,25
2019-05-22T11:56:10.740Z,20
2019-05-22T11:57:10.446Z,20
2019-05-22T11:58:10.961Z,15
2019-05-22T11:59:11.159Z,15
2019-05-22T12:00:14.413Z,15
2019-05-22T12:01:10.554Z,10
2019-05-22T12:02:12.368Z,10
2019-05-22T12:03:10.537Z,10
2019-05-22T12:04:10.494Z,5
2019-05-22T12:05:10.477Z,5
2019-05-22T12:06:10.483Z,5
2019-05-22T12:07:10.599Z,5
2019-05-22T12:08:10.821Z,5
2019-05-22T12:09:10.572Z,5
2019-05-22T12:10:10.652Z,5
2019-05-22T12:11:10.804Z,0
2019-05-22T12:12:10.456Z,0
2019-05-22T12:13:10.596Z,0
2019-05-22T12:14:11.130Z,0
2019-05-22T12:15:10.539Z,0
2019-05-22T12:16:10.775Z,0
2019-05-22T12:17:36.551Z,0
2019-05-22T12:18:12.427Z,0
2019-05-22T12:19:10.512Z,0
2019-05-22T12:20:11.046Z,0
2019-05-22T12:21:10.505Z,0
2019-05-22T12:22:10.527Z,0
2019-05-22T12:23:10.617Z,0
2019-05-22T12:24:24.619Z,0
2019-05-22T12:25:10.524Z,0
2019-05-22T12:26:10.917Z,0
2019-05-22T12:27:10.922Z,0
2019-05-22T12:28:10.647Z,0
2019-05-22T12:29:10.592Z,0
2019-05-22T12:30:10.507Z,0
2019-05-22T12:31:10.787Z,0
2019-05-22T12:32:11.350Z,0
2019-05-22T12:33:18.436Z,0
2019-05-22T12:34:10.541Z,0
2019-05-22T12:35:10.714Z,5
2019-05-22T12:36:10.479Z,5
2019-05-22T12:37:10.507Z,5
2019-05-22T12:38:11.947Z,5
2019-05-22T12:39:10.662Z,5
2019-05-22T12:40:10.562Z,5
2019-05-22T12:41:10.552Z,5
2019-05-22T12:42:10.495Z,5
2019-05-22T12:43:10.526Z,5
2019-05-22T12:44:11.161Z,10
2019-05-22T12:45:11.418Z,10
2019-05-22T12:46:10.646Z,10
2019-05-22T12:47:21.702Z,10
2019-05-22T12:48:10.524Z,10
2019-05-22T12:49:14.120Z,10
2019-05-22T12:50:11.138Z,15
2019-05-22T12:51:10.606Z,15
2019-05-22T12:52:10.571Z,15
2019-05-22T12:53:10.767Z,15
2019-05-22T12:54:10.797Z,15
2019-05-22T12:55:10.632Z,15
2019-05-22T12:56:10.909Z,15
2019-05-22T12:57:10.670Z,15
2019-05-22T12:58:10.589Z,15
2019-05-22T12:59:10.606Z,20
2019-05-22T13:00:13.205Z,20
2019-05-22T13:01:10.845Z,20
2019-05-22T13:02:11.059Z,20
2019-05-22T13:03:10.631Z,20
2019-05-22T13:04:10.732Z,20
2019-05-22T13:05:14.187Z,20
2019-05-22T13:06:10.683Z,20
2019-05-22T13:07:10.562Z,20
2019-05-22T13:08:11.349Z,15
2019-05-22T13:09:10.598Z,15
2019-05-22T13:10:10.754Z,15
2019-05-22T13:11:13.205Z,15
2019-05-22T13:12:10.562Z,15
2019-05-22T13:13:10.554Z,15
2019-05-22T13:14:10.680Z,15
2019-05-22T13:15:20.558Z,15
2019-05-22T13:16:12.127Z,20
2019-05-22T13:17:19.670Z,20
2019-05-22T13:18:14.088Z,20
2019-05-22T13:19:10.611Z,20
2019-05-22T13:20:10.611Z,20
2019-05-22T13:21:10.625Z,30
2019-05-22T13:22:10.536Z,35
2019-05-22T13:23:10.642Z,50
2019-05-22T13:24:10.624Z,75
2019-05-22T13:25:10.671Z,75
2019-05-22T13:26:10.926Z,80
2019-05-22T13:27:10.708Z,40
2019-05-22T13:28:10.753Z,25
2019-05-22T13:29:10.715Z,20
2019-05-22T13:30:10.972Z,20
2019-05-22T13:31:10.708Z,15
2019-05-22T13:32:10.575Z,15
2019-05-22T13:33:10.643Z,15
2019-05-22T13:34:10.795Z,15
2019-05-22T13:35:10.761Z,10
2019-05-22T13:36:11.076Z,10
2019-05-22T13:37:10.590Z,10
2019-05-22T13:38:10.643Z,10
2019-05-22T13:39:10.729Z,10
2019-05-22T13:40:29.018Z,10
2019-05-22T13:41:10.758Z,15
2019-05-22T13:42:13.496Z,15
2019-05-22T13:43:10.827Z,20
2019-05-22T13:44:10.943Z,20
2019-05-22T13:45:27.591Z,25
2019-05-22T13:46:10.588Z,25
2019-05-22T13:47:10.649Z,30
2019-05-22T13:48:10.687Z,30
2019-05-22T13:49:10.707Z,40
2019-05-22T13:50:12.546Z,35
2019-05-22T13:51:10.893Z,25
2019-05-22T13:52:10.837Z,25
2019-05-22T13:53:11.305Z,20
2019-05-22T13:54:10.644Z,20
2019-05-22T13:55:10.785Z,20
2019-05-22T13:56:11.336Z,20
2019-05-22T13:57:10.648Z,20
2019-05-22T13:58:10.693Z,20
2019-05-22T13:59:10.673Z,15
2019-05-22T14:00:14.608Z,15
2019-05-22T14:01:10.779Z,15
2019-05-22T14:02:10.990Z,10
2019-05-22T14:03:10.688Z,10
2019-05-22T14:04:10.761Z,10
2019-05-22T14:05:13.627Z,10
2019-05-22T14:06:10.727Z,10
2019-05-22T14:07:10.753Z,10
2019-05-22T14:08:11.050Z,10
2019-05-22T14:09:10.800Z,10
2019-05-22T14:10:12.355Z,10
2019-05-22T14:11:11.525Z,10
2019-05-22T14:12:10.768Z,10
2019-05-22T14:13:10.924Z,10
2019-05-22T14:14:24.811Z,10
2019-05-22T14:15:56.347Z,10
2019-05-22T14:16:10.715Z,10
2019-05-22T14:18:10.968Z,10
2019-05-22T14:19:10.892Z,10
2019-05-22T14:20:11.516Z,10
2019-05-22T14:21:10.886Z,10
2019-05-22T14:22:10.968Z,10
2019-05-22T14:23:11.066Z,5
2019-05-22T14:24:10.805Z,5
2019-05-22T14:25:10.810Z,5
2019-05-22T14:26:11.228Z,5
2019-05-22T14:27:10.761Z,5
2019-05-22T14:28:11.015Z,5
2019-05-22T14:29:10.796Z,10
2019-05-22T14:30:11.010Z,10
2019-05-22T14:31:10.932Z,10
2019-05-22T14:32:11.385Z,10
2019-05-22T14:33:15.491Z,10
2019-05-22T14:34:10.815Z,10
2019-05-22T14:35:11.067Z,10
2019-05-22T14:36:11.025Z,10
2019-05-22T14:37:10.929Z,10
2019-05-22T14:38:11.546Z,10
2019-05-22T14:39:10.844Z,10
2019-05-22T14:40:10.848Z,10
2019-05-22T14:41:11.181Z,10
2019-05-22T14:42:11.291Z,10
2019-05-22T14:43:10.853Z,10
2019-05-22T14:44:11.246Z,10
2019-05-22T14:45:11.031Z,10
2019-05-22T14:46:11.094Z,10
2019-05-22T14:47:37.189Z,10
2019-05-22T14:48:11.727Z,10
2019-05-22T14:49:10.951Z,10
2019-05-22T14:50:12.252Z,10
2019-05-22T14:51:12.734Z,10
2019-05-22T14:52:10.973Z,10
2019-05-22T14:53:12.067Z,10
2019-05-22T14:54:13.586Z,10
2019-05-22T14:55:13.321Z,10
2019-05-22T14:56:17.047Z,10
2019-05-22T14:57:17.725Z,10
2019-05-22T14:58:11.926Z,10
2019-05-22T14:59:12.896Z,10
2019-05-22T15:00:14.973Z,10
2019-05-22T15:01:11.948Z,10
2019-05-22T15:02:17.280Z,10
2019-05-22T15:03:12.804Z,15
2019-05-22T15:04:15.414Z,15
2019-05-22T15:05:14.815Z,15